createdAt,value
2017-12-15T00:13:35.277Z,3.95
2017-12-15T00:34:12.740Z,3.99
2017-12-15T00:54:46.481Z,4.01
2017-12-15T01:15:21.762Z,3.72
2017-12-15T01:35:56.708Z,3.82
2017-12-15T01:56:33.227Z,4.00
2017-12-15T02:17:07.445Z,4.18
2017-12-15T02:37:43.448Z,4.20
2017-12-15T02:58:16.896Z,4.04
2017-12-15T03:18:52.763Z,4.03
2017-12-15T03:39:27.108Z,3.97
2017-12-15T04:00:03.304Z,3.90
2017-12-15T04:20:38.573Z,3.44
2017-12-15T04:41:14.769Z,3.24
2017-12-15T05:01:48.197Z,3.49
2017-12-15T05:22:23.162Z,3.65
2017-12-15T05:42:57.205Z,3.74
2017-12-15T06:03:33.704Z,3.83
2017-12-15T06:24:08.669Z,4.04
2017-12-15T06:44:44.244Z,3.87
2017-12-15T07:05:15.226Z,3.87
2017-12-15T07:25:48.647Z,3.96
2017-12-15T07:46:24.065Z,3.73
2017-12-15T08:06:55.198Z,3.30
2017-12-15T08:27:26.164Z,2.88
2017-12-15T08:48:01.440Z,2.69
2017-12-15T09:08:35.790Z,2.82
2017-12-15T09:29:08.911Z,2.82
2017-12-15T09:49:42.033Z,3.20
2017-12-15T10:10:19.564Z,3.26
2017-12-15T10:30:58.835Z,3.57
2017-12-15T10:51:38.105Z,4.00
2017-12-15T11:12:15.100Z,4.25
2017-12-15T11:32:50.629Z,4.27
2017-12-15T11:53:26.564Z,4.44
2017-12-15T12:14:00.038Z,4.88
2017-12-15T12:34:34.035Z,5.03
2017-12-15T12:55:06.235Z,5.20
2017-12-15T13:15:41.815Z,5.05
2017-12-15T13:36:16.775Z,5.24
2017-12-15T13:56:52.979Z,5.21
2017-12-15T14:17:26.092Z,5.22
2017-12-15T14:38:01.363Z,5.15
2017-12-15T14:58:36.636Z,4.93
2017-12-15T15:19:12.825Z,4.70
2017-12-15T15:39:48.377Z,4.03
2017-12-15T16:00:23.373Z,3.84
2017-12-15T16:20:57.416Z,4.01
2017-12-15T16:41:30.844Z,3.97
2017-12-15T17:02:03.964Z,4.05
2017-12-15T17:22:37.084Z,4.09
2017-12-15T17:43:12.356Z,4.25
2017-12-15T18:03:48.550Z,4.31
2017-12-15T18:24:25.977Z,3.87
2017-12-15T18:45:00.020Z,3.78
2017-12-15T19:05:35.293Z,3.45
2017-12-15T19:26:07.492Z,3.26
2017-12-15T19:46:44.003Z,3.40
2017-12-15T20:07:18.958Z,3.37
2017-12-15T20:27:54.226Z,3.32
2017-12-15T20:48:29.500Z,3.57
2017-12-15T21:09:05.697Z,3.43
2017-12-15T21:29:41.890Z,3.45
2017-12-15T21:50:15.376Z,3.59
2017-12-15T22:10:48.441Z,3.43
2017-12-15T22:31:22.480Z,3.57
2017-12-15T22:51:57.755Z,3.64
2017-12-15T23:12:33.023Z,3.52
2017-12-15T23:33:06.149Z,3.52
2017-12-15T23:53:41.416Z,3.44
